Time;durP1;ratioP1;P1;durP2;ratioP2;P2;SDS_P1;SDS_P2;PMS_P1;PMS_P2;Temp;Humidity;BMP_temperature;BMP_pressure;BME280_temperature;BME280_humidity;BME280_pressure;Samples;Min_cycle;Max_cycle;Signal;HPM_P1;HPM_P2
2022/12/19 05:33:04;;;;;;;173.85;61.72;;;;;;;;;;5515426;23;20088;-75
2022/12/19 05:38:03;;;;;;;158.02;54.78;;;;;;;;;;5060317;23;20533;-72
2022/12/19 05:40:29;;;;;;;156.18;60.47;;;;;;;;;;4819340;29;20151;-72
2022/12/19 05:42:56;;;;;;;144.38;54.92;;;;;;;;;;4816716;29;20137;-73
2022/12/19 05:45:22;;;;;;;155.90;61.95;;;;;;;;;;4812995;29;20622;-73
2022/12/19 05:47:48;;;;;;;153.18;58.97;;;;;;;;;;4804736;29;21773;-73
2022/12/19 05:50:14;;;;;;;165.82;64.60;;;;;;;;;;4807040;29;20129;-73
2022/12/19 05:52:40;;;;;;;146.05;55.35;;;;;;;;;;4800135;29;20058;-74
2022/12/19 05:55:07;;;;;;;131.93;51.40;;;;;;;;;;4798943;29;20060;-74
2022/12/19 05:57:33;;;;;;;147.82;61.75;;;;;;;;;;4811809;29;20049;-73
2022/12/19 05:59:59;;;;;;;175.20;63.30;;;;;;;;;;4828740;29;20307;-71
2022/12/19 06:02:26;;;;;;;134.40;48.92;;;;;;;;;;4806931;29;20056;-72
2022/12/19 06:04:52;;;;;;;165.32;63.92;;;;;;;;;;4824494;29;20041;-72
2022/12/19 06:07:18;;;;;;;142.40;57.08;;;;;;;;;;4825761;29;20549;-72
2022/12/19 06:09:44;;;;;;;174.18;62.78;;;;;;;;;;4826231;29;20050;-69
2022/12/19 06:12:10;;;;;;;159.68;62.22;;;;;;;;;;4821693;29;20141;-70
2022/12/19 06:14:36;;;;;;;155.98;54.85;;;;;;;;;;4808564;29;20053;-70
2022/12/19 06:17:02;;;;;;;163.65;57.10;;;;;;;;;;4808565;29;20048;-70
2022/12/19 06:19:30;;;;;;;161.27;56.83;;;;;;;;;;4815136;29;20049;-70
2022/12/19 06:21:56;;;;;;;175.00;58.05;;;;;;;;;;4821789;29;20113;-71
2022/12/19 06:24:24;;;;;;;174.27;63.20;;;;;;;;;;4827776;29;20132;-70
2022/12/19 06:26:50;;;;;;;173.43;70.13;;;;;;;;;;4810863;29;20098;-70
2022/12/19 06:29:16;;;;;;;180.48;64.60;;;;;;;;;;4813027;29;20507;-70
2022/12/19 06:31:42;;;;;;;141.18;53.67;;;;;;;;;;4812201;29;20175;-70
2022/12/19 06:34:09;;;;;;;133.82;52.30;;;;;;;;;;4812828;29;20053;-71
2022/12/19 06:36:35;;;;;;;143.20;53.38;;;;;;;;;;4801980;29;20156;-70
2022/12/19 06:39:01;;;;;;;145.18;62.53;;;;;;;;;;4818266;29;20050;-71
2022/12/19 06:44:13;;;;;;;134.05;54.70;;;;;;;;;;4812236;29;20439;-71
2022/12/19 06:46:40;;;;;;;154.93;58.97;;;;;;;;;;4818066;29;20072;-71
2022/12/19 06:49:06;;;;;;;153.75;57.97;;;;;;;;;;4806200;29;20057;-71
2022/12/19 06:51:33;;;;;;;153.75;55.67;;;;;;;;;;4823570;29;20411;-72
2022/12/19 06:53:59;;;;;;;141.70;50.95;;;;;;;;;;4812729;29;20045;-72
2022/12/19 06:56:25;;;;;;;114.80;49.42;;;;;;;;;;4812938;29;20038;-71
2022/12/19 06:58:51;;;;;;;142.43;50.45;;;;;;;;;;4821467;29;20046;-71
2022/12/19 07:01:18;;;;;;;111.45;43.72;;;;;;;;;;4829211;29;20309;-70
2022/12/19 07:03:45;;;;;;;127.57;48.65;;;;;;;;;;4807278;29;20069;-71
2022/12/19 07:06:11;;;;;;;113.63;49.42;;;;;;;;;;4811736;29;20437;-72
2022/12/19 07:08:38;;;;;;;123.05;46.33;;;;;;;;;;4795816;29;20069;-71
2022/12/19 07:11:09;;;;;;;120.25;51.72;;;;;;;;;;4814028;29;20140;-71
2022/12/19 07:13:35;;;;;;;108.93;44.97;;;;;;;;;;4809614;29;20518;-71
2022/12/19 07:16:03;;;;;;;98.85;40.40;;;;;;;;;;4816512;29;20045;-72
2022/12/19 07:18:31;;;;;;;109.05;46.35;;;;;;;;;;4815357;29;20053;-72
2022/12/19 07:20:57;;;;;;;120.28;50.13;;;;;;;;;;4817344;29;20052;-72
2022/12/19 07:23:23;;;;;;;98.38;41.78;;;;;;;;;;4814054;29;20426;-72
2022/12/19 07:25:49;;;;;;;86.70;43.20;;;;;;;;;;4804706;29;20057;-73
2022/12/19 07:28:16;;;;;;;99.78;42.13;;;;;;;;;;4798929;29;20582;-72
2022/12/19 07:30:42;;;;;;;86.68;39.30;;;;;;;;;;4823015;29;20092;-73
2022/12/19 07:33:08;;;;;;;90.68;42.63;;;;;;;;;;4817768;29;20081;-73
2022/12/19 07:35:35;;;;;;;104.05;43.38;;;;;;;;;;4817750;29;20146;-72
2022/12/19 07:38:02;;;;;;;88.32;38.55;;;;;;;;;;4800036;29;20104;-72
2022/12/19 07:40:28;;;;;;;81.93;35.00;;;;;;;;;;4828068;29;20054;-72
2022/12/19 07:42:54;;;;;;;86.00;34.97;;;;;;;;;;4826676;29;20072;-72
2022/12/19 07:45:20;;;;;;;95.43;45.45;;;;;;;;;;4813845;29;20041;-72
2022/12/19 07:47:46;;;;;;;84.20;38.63;;;;;;;;;;4811046;29;20049;-72
2022/12/19 07:50:12;;;;;;;89.55;43.28;;;;;;;;;;4809986;29;20049;-72
2022/12/19 07:52:39;;;;;;;79.82;38.08;;;;;;;;;;4828374;29;20364;-72
2022/12/19 07:55:05;;;;;;;70.10;32.95;;;;;;;;;;4809697;29;20482;-72
2022/12/19 07:57:31;;;;;;;76.05;37.72;;;;;;;;;;4800946;29;20046;-72
2022/12/19 07:59:57;;;;;;;65.03;27.88;;;;;;;;;;4797342;29;20135;-72
2022/12/19 08:02:23;;;;;;;64.35;32.60;;;;;;;;;;4801244;29;20532;-72
2022/12/19 08:04:49;;;;;;;79.82;35.33;;;;;;;;;;4811371;29;20129;-72
2022/12/19 08:07:16;;;;;;;83.63;37.05;;;;;;;;;;4815702;29;20053;-71
2022/12/19 08:09:42;;;;;;;68.85;33.42;;;;;;;;;;4810878;29;20053;-72
2022/12/19 08:12:09;;;;;;;77.28;32.38;;;;;;;;;;4819926;29;20505;-71
2022/12/19 08:14:35;;;;;;;74.60;32.70;;;;;;;;;;4829468;29;20041;-73
2022/12/19 08:17:01;;;;;;;77.38;36.92;;;;;;;;;;4803726;29;20068;-72
2022/12/19 08:19:27;;;;;;;63.20;27.63;;;;;;;;;;4819523;29;20054;-73
2022/12/19 08:21:53;;;;;;;67.47;29.05;;;;;;;;;;4811990;29;20057;-70
2022/12/19 08:24:19;;;;;;;80.68;38.78;;;;;;;;;;4801377;29;20116;-71
2022/12/19 08:26:45;;;;;;;78.38;36.83;;;;;;;;;;4817763;29;20057;-72
2022/12/19 08:29:12;;;;;;;78.47;36.67;;;;;;;;;;4816934;29;20058;-71
2022/12/19 08:31:38;;;;;;;64.63;33.38;;;;;;;;;;4820452;29;20057;-72
2022/12/19 08:34:04;;;;;;;65.03;30.65;;;;;;;;;;4820815;29;20099;-72
2022/12/19 08:36:31;;;;;;;66.05;27.73;;;;;;;;;;4813602;29;20141;-71
2022/12/19 08:38:57;;;;;;;67.65;31.73;;;;;;;;;;4821541;29;20144;-70
2022/12/19 08:41:23;;;;;;;64.38;30.25;;;;;;;;;;4817413;29;20049;-70
2022/12/19 08:43:51;;;;;;;63.95;28.17;;;;;;;;;;4819797;29;20065;-70
2022/12/19 08:46:18;;;;;;;58.42;27.60;;;;;;;;;;4801537;29;20422;-70
2022/12/19 08:48:44;;;;;;;68.50;29.98;;;;;;;;;;4828738;29;20685;-71
2022/12/19 08:51:11;;;;;;;73.65;34.80;;;;;;;;;;4805328;29;20044;-71
2022/12/19 08:53:38;;;;;;;66.95;32.35;;;;;;;;;;4812668;29;20068;-71
2022/12/19 08:56:08;;;;;;;69.57;31.75;;;;;;;;;;4814807;29;20052;-70
2022/12/19 08:58:35;;;;;;;64.93;30.95;;;;;;;;;;4810565;29;20746;-70
2022/12/19 09:01:03;;;;;;;66.28;29.55;;;;;;;;;;4827789;29;20049;-71
2022/12/19 09:03:30;;;;;;;64.88;27.65;;;;;;;;;;4813539;29;20778;-71
2022/12/19 09:05:56;;;;;;;63.90;28.63;;;;;;;;;;4823740;29;20046;-71
2022/12/19 09:08:23;;;;;;;65.70;31.13;;;;;;;;;;4800923;29;20050;-71
2022/12/19 09:10:49;;;;;;;63.25;29.85;;;;;;;;;;4825787;29;20093;-71
2022/12/19 09:13:15;;;;;;;62.75;32.45;;;;;;;;;;4824682;29;20056;-70
2022/12/19 09:15:41;;;;;;;53.25;27.10;;;;;;;;;;4809148;29;20053;-70
2022/12/19 09:18:07;;;;;;;58.30;26.45;;;;;;;;;;4810986;29;20038;-70
2022/12/19 09:20:34;;;;;;;49.88;25.02;;;;;;;;;;4809956;29;20486;-70
2022/12/19 09:23:00;;;;;;;56.72;27.38;;;;;;;;;;4808952;29;20618;-71
2022/12/19 09:25:26;;;;;;;52.78;29.00;;;;;;;;;;4808644;29;20089;-71
2022/12/19 09:27:52;;;;;;;55.90;27.30;;;;;;;;;;4829038;29;20486;-71
2022/12/19 09:30:18;;;;;;;49.25;25.25;;;;;;;;;;4796312;29;20573;-71
2022/12/19 09:32:44;;;;;;;53.80;29.55;;;;;;;;;;4825269;29;20152;-71
2022/12/19 09:35:10;;;;;;;41.65;23.45;;;;;;;;;;4808621;29;20360;-72
2022/12/19 09:37:37;;;;;;;46.35;24.45;;;;;;;;;;4807849;29;20117;-71
2022/12/19 09:40:03;;;;;;;50.90;26.95;;;;;;;;;;4822200;29;20132;-71
2022/12/19 09:42:29;;;;;;;51.78;28.65;;;;;;;;;;4811317;29;20088;-71
2022/12/19 09:44:55;;;;;;;52.28;25.15;;;;;;;;;;4810835;29;20534;-73
2022/12/19 09:47:29;;;;;;;54.30;32.10;;;;;;;;;;4809146;29;20057;-73
2022/12/19 09:49:55;;;;;;;;;;;;;;;;;;4803929;29;20061;-73
2022/12/19 09:52:25;;;;;;;39.28;24.73;;;;;;;;;;4811449;29;20288;-74
2022/12/19 09:54:57;;;;;;;43.28;22.80;;;;;;;;;;4825113;29;20140;-73
2022/12/19 09:57:25;;;;;;;36.38;22.10;;;;;;;;;;4811537;29;20062;-73
2022/12/19 09:59:57;;;;;;;51.90;28.17;;;;;;;;;;4815411;29;21919;-74
2022/12/19 10:02:23;;;;;;;50.13;29.02;;;;;;;;;;4816093;29;20399;-74
2022/12/19 10:04:51;;;;;;;52.05;30.70;;;;;;;;;;4818585;29;20088;-73
2022/12/19 10:07:18;;;;;;;48.92;27.55;;;;;;;;;;4819286;29;20152;-74
2022/12/19 10:09:45;;;;;;;52.92;26.98;;;;;;;;;;4813361;29;20042;-74
2022/12/19 10:12:11;;;;;;;50.17;29.45;;;;;;;;;;4834072;29;20041;-74
2022/12/19 10:14:37;;;;;;;55.45;32.75;;;;;;;;;;4824244;29;20505;-75
2022/12/19 10:17:03;;;;;;;59.28;34.90;;;;;;;;;;4823807;29;20467;-74
2022/12/19 10:19:44;;;;;;;54.80;31.42;;;;;;;;;;4824303;29;20106;-74
2022/12/19 10:22:29;;;;;;;54.58;30.27;;;;;;;;;;4822725;29;20049;-74
2022/12/19 10:25:04;;;;;;;50.63;26.42;;;;;;;;;;4818727;29;20123;-74
2022/12/19 10:27:33;;;;;;;52.70;31.92;;;;;;;;;;4813426;29;20136;-73
2022/12/19 10:30:19;;;;;;;57.50;32.38;;;;;;;;;;4823095;29;20053;-74
2022/12/19 10:33:02;;;;;;;55.00;29.15;;;;;;;;;;4817616;29;20046;-74
2022/12/19 10:35:37;;;;;;;48.05;28.02;;;;;;;;;;4804292;29;20053;-74
2022/12/19 10:38:18;;;;;;;54.05;32.42;;;;;;;;;;4816973;29;20061;-74
2022/12/19 10:41:03;;;;;;;55.53;33.22;;;;;;;;;;4813842;29;20383;-74
2022/12/19 10:43:48;;;;;;;47.50;28.55;;;;;;;;;;4814786;29;20132;-74
2022/12/19 10:46:22;;;;;;;54.45;31.30;;;;;;;;;;4816510;29;20057;-74
2022/12/19 10:48:48;;;;;;;;;;;;;;;;;;4832154;29;20042;-73
2022/12/19 10:51:21;;;;;;;45.58;30.20;;;;;;;;;;4830539;29;19987;-73
2022/12/19 10:53:52;;;;;;;39.75;24.90;;;;;;;;;;4820801;29;20064;-73
2022/12/19 10:56:23;;;;;;;39.35;25.23;;;;;;;;;;4829093;29;20045;-73
2022/12/19 10:58:56;;;;;;;46.25;29.65;;;;;;;;;;4801371;29;20045;-73
2022/12/19 11:01:22;;;;;;;49.80;30.10;;;;;;;;;;4818213;29;20053;-73
2022/12/19 11:03:51;;;;;;;44.35;25.02;;;;;;;;;;4814780;29;20636;-72
2022/12/19 11:06:36;;;;;;;47.45;28.67;;;;;;;;;;4815376;29;20046;-72
2022/12/19 11:09:21;;;;;;;40.35;26.63;;;;;;;;;;4811866;29;20613;-72
2022/12/19 11:11:48;;;;;;;44.65;26.02;;;;;;;;;;4810972;29;20049;-73
2022/12/19 11:14:21;;;;;;;49.70;29.88;;;;;;;;;;4820697;29;20132;-73
2022/12/19 11:16:48;;;;;;;47.75;27.48;;;;;;;;;;4816172;29;20041;-72
2022/12/19 11:19:40;;;;;;;42.78;26.58;;;;;;;;;;4811083;29;20673;-72
2022/12/19 11:22:14;;;;;;;48.45;29.55;;;;;;;;;;4815782;29;20054;-72
2022/12/19 11:24:45;;;;;;;47.95;27.95;;;;;;;;;;4813056;29;20201;-72
2022/12/19 11:27:30;;;;;;;41.63;25.40;;;;;;;;;;4831757;29;20053;-72
2022/12/19 11:29:57;;;;;;;36.00;19.63;;;;;;;;;;4814600;29;20458;-72
2022/12/19 11:32:33;;;;;;;39.85;25.88;;;;;;;;;;4812631;29;20983;-72
2022/12/19 11:35:04;;;;;;;42.65;24.77;;;;;;;;;;4811310;29;20104;-72
2022/12/19 11:37:50;;;;;;;35.72;22.15;;;;;;;;;;4801035;29;20050;-72
2022/12/19 11:40:24;;;;;;;40.78;24.40;;;;;;;;;;4810643;29;20045;-72
2022/12/19 11:42:53;;;;;;;44.88;23.83;;;;;;;;;;4815037;29;20042;-72
2022/12/19 11:45:38;;;;;;;40.88;24.42;;;;;;;;;;4816487;29;20057;-72
2022/12/19 11:48:04;;;;;;;37.60;22.50;;;;;;;;;;4817221;29;20046;-73
2022/12/19 11:50:32;;;;;;;38.28;25.30;;;;;;;;;;4816901;29;20045;-72
2022/12/19 11:53:04;;;;;;;37.75;25.10;;;;;;;;;;4812783;29;20474;-72
2022/12/19 11:55:50;;;;;;;38.60;23.77;;;;;;;;;;4829286;29;20485;-72
2022/12/19 11:58:16;;;;;;;34.50;22.67;;;;;;;;;;4817781;29;20058;-72
2022/12/19 12:00:49;;;;;;;39.88;25.20;;;;;;;;;;4822569;29;20102;-72
2022/12/19 12:03:33;;;;;;;41.42;25.25;;;;;;;;;;4830559;29;20416;-72
2022/12/19 12:05:59;;;;;;;;;;;;;;;;;;4818043;29;20505;-72
2022/12/19 12:08:40;;;;;;;33.65;19.98;;;;;;;;;;4810674;29;19931;-72
2022/12/19 12:11:25;;;;;;;42.30;24.50;;;;;;;;;;4821208;29;20593;-72
2022/12/19 12:13:57;;;;;;;35.20;22.92;;;;;;;;;;4813894;29;20699;-72
2022/12/19 12:16:30;;;;;;;41.05;25.25;;;;;;;;;;4814689;29;20068;-71
2022/12/19 12:18:56;;;;;;;37.88;24.10;;;;;;;;;;4827253;29;20061;-72
2022/12/19 12:21:23;;;;;;;40.03;26.27;;;;;;;;;;4825943;29;20069;-72
2022/12/19 12:24:08;;;;;;;34.53;21.80;;;;;;;;;;4817249;29;20459;-72
2022/12/19 12:26:47;;;;;;;31.80;21.33;;;;;;;;;;4826565;29;20060;-72
2022/12/19 12:29:22;;;;;;;41.35;25.98;;;;;;;;;;4817789;29;20045;-72
2022/12/19 12:31:48;;;;;;;37.95;22.73;;;;;;;;;;4821684;29;20046;-72
2022/12/19 12:34:14;;;;;;;31.73;18.70;;;;;;;;;;4821183;29;20101;-72
2022/12/19 12:36:47;;;;;;;28.13;17.35;;;;;;;;;;4828848;29;20049;-71
2022/12/19 12:39:19;;;;;;;41.10;24.05;;;;;;;;;;4809980;29;20069;-72
2022/12/19 12:42:03;;;;;;;33.45;22.60;;;;;;;;;;4815960;29;20054;-72
2022/12/19 12:44:37;;;;;;;30.75;19.60;;;;;;;;;;4820409;29;20053;-72
2022/12/19 12:47:23;;;;;;;32.22;21.52;;;;;;;;;;4803208;29;20058;-71
2022/12/19 12:49:53;;;;;;;37.30;21.55;;;;;;;;;;4812127;29;20166;-72
2022/12/19 12:52:39;;;;;;;30.48;18.05;;;;;;;;;;4803517;29;20037;-72
2022/12/19 12:55:12;;;;;;;30.13;20.27;;;;;;;;;;4807600;29;20046;-80
2022/12/19 12:57:38;;;;;;;36.45;21.25;;;;;;;;;;4814531;29;20052;-74
2022/12/19 13:00:16;;;;;;;22.83;16.05;;;;;;;;;;4802062;29;20112;-73
2022/12/19 13:03:06;;;;;;;37.28;22.77;;;;;;;;;;4816998;29;20093;-73
2022/12/19 13:05:32;;;;;;;30.20;22.75;;;;;;;;;;4817799;29;20862;-74
2022/12/19 13:07:58;;;;;;;37.03;24.20;;;;;;;;;;4811473;29;20057;-71
2022/12/19 13:10:25;;;;;;;32.70;20.92;;;;;;;;;;4826408;29;20038;-71
2022/12/19 13:12:58;;;;;;;44.38;26.00;;;;;;;;;;4813663;29;20045;-71
2022/12/19 13:15:27;;;;;;;34.15;21.30;;;;;;;;;;4813203;29;20045;-71
2022/12/19 13:17:53;;;;;;;40.83;22.83;;;;;;;;;;4814755;29;20438;-71
2022/12/19 13:20:29;;;;;;;39.90;24.73;;;;;;;;;;4811075;29;20579;-71
2022/12/19 13:22:58;;;;;;;32.50;22.15;;;;;;;;;;4815157;29;20439;-71
2022/12/19 13:25:30;;;;;;;33.10;21.13;;;;;;;;;;4807477;29;20041;-71
2022/12/19 13:28:02;;;;;;;40.08;23.63;;;;;;;;;;4829121;29;20045;-72
2022/12/19 13:30:29;;;;;;;34.65;22.98;;;;;;;;;;4816985;29;20060;-71
2022/12/19 13:32:55;;;;;;;32.25;21.90;;;;;;;;;;4820454;29;20049;-72
2022/12/19 13:35:21;;;;;;;30.60;20.80;;;;;;;;;;4833378;29;20121;-71
2022/12/19 13:37:58;;;;;;;25.40;15.02;;;;;;;;;;4831412;29;20129;-71
2022/12/19 13:40:24;;;;;;;29.45;22.05;;;;;;;;;;4806504;29;20046;-71
2022/12/19 13:45:50;;;;;;;37.75;22.98;;;;;;;;;;4820840;29;20499;-75
2022/12/19 13:48:19;;;;;;;33.65;22.50;;;;;;;;;;4834729;29;20050;-76
2022/12/19 13:50:47;;;;;;;32.38;21.98;;;;;;;;;;4821069;29;20081;-76
2022/12/19 13:53:17;;;;;;;30.75;21.60;;;;;;;;;;4806753;29;20057;-76
2022/12/19 13:55:43;;;;;;;36.00;19.70;;;;;;;;;;4822851;29;20098;-76
2022/12/19 13:58:21;;;;;;;31.70;22.35;;;;;;;;;;4825651;29;20376;-77
2022/12/19 14:00:47;;;;;;;32.90;22.52;;;;;;;;;;4826792;29;20045;-77
2022/12/19 14:03:18;;;;;;;30.63;21.55;;;;;;;;;;4824235;29;20087;-79
2022/12/19 14:05:45;;;;;;;30.10;20.70;;;;;;;;;;4818995;29;20042;-78
2022/12/19 14:08:15;;;;;;;26.52;20.40;;;;;;;;;;4821722;29;20759;-79
2022/12/19 14:10:43;;;;;;;33.53;22.13;;;;;;;;;;4824327;29;20666;-79
2022/12/19 14:15:59;;;;;;;27.38;20.65;;;;;;;;;;4821460;29;20049;-78
2022/12/19 14:18:30;;;;;;;29.20;20.00;;;;;;;;;;4809820;29;20503;-78
2022/12/19 14:21:14;;;;;;;29.67;20.20;;;;;;;;;;4821914;29;20940;-79
2022/12/19 14:23:40;;;;;;;33.05;22.75;;;;;;;;;;4808432;29;20057;-78
2022/12/19 14:26:12;;;;;;;33.70;20.90;;;;;;;;;;4836263;29;20124;-78
2022/12/19 14:28:47;;;;;;;39.55;25.02;;;;;;;;;;4807732;29;20511;-78
2022/12/19 14:31:15;;;;;;;31.45;19.73;;;;;;;;;;4818744;29;20046;-78
2022/12/19 14:33:43;;;;;;;29.92;23.08;;;;;;;;;;4819446;29;20731;-78
2022/12/19 14:36:09;;;;;;;38.38;26.23;;;;;;;;;;4820540;29;20045;-79
2022/12/19 14:38:35;;;;;;;33.88;21.67;;;;;;;;;;4823934;29;20056;-79
2022/12/19 14:41:02;;;;;;;39.58;26.33;;;;;;;;;;4824625;29;20065;-78
2022/12/19 14:43:38;;;;;;;31.42;21.98;;;;;;;;;;4822707;29;20605;-78
2022/12/19 14:46:20;;;;;;;29.65;19.20;;;;;;;;;;4822209;29;20128;-78
2022/12/19 14:48:48;;;;;;;36.08;26.40;;;;;;;;;;4807430;29;20045;-79
2022/12/19 14:51:19;;;;;;;32.70;24.48;;;;;;;;;;4824583;29;20041;-75
2022/12/19 14:54:04;;;;;;;32.53;21.17;;;;;;;;;;4829601;29;20635;-75
2022/12/19 14:56:42;;;;;;;29.50;19.52;;;;;;;;;;4817724;29;20390;-75
2022/12/19 14:59:20;;;;;;;28.42;20.25;;;;;;;;;;4823943;29;20077;-77
2022/12/19 15:01:53;;;;;;;31.67;23.33;;;;;;;;;;4827904;29;20056;-75
2022/12/19 15:04:22;;;;;;;29.75;22.85;;;;;;;;;;4811238;29;20051;-75
2022/12/19 15:06:49;;;;;;;32.42;22.00;;;;;;;;;;4801808;29;20045;-76
2022/12/19 15:09:17;;;;;;;35.78;22.35;;;;;;;;;;4812166;29;20057;-75
2022/12/19 15:14:40;;;;;;;29.30;21.90;;;;;;;;;;4814029;29;20053;-76
2022/12/19 15:17:20;;;;;;;25.80;19.92;;;;;;;;;;4813050;29;20045;-77
2022/12/19 15:19:47;;;;;;;29.10;21.52;;;;;;;;;;4824803;29;20132;-76
2022/12/19 15:22:13;;;;;;;29.52;21.30;;;;;;;;;;4817908;29;20410;-78
2022/12/19 15:24:39;;;;;;;30.45;19.00;;;;;;;;;;4784162;29;20050;-79
2022/12/19 15:27:09;;;;;;;20.67;13.98;;;;;;;;;;4795457;29;20516;-78
2022/12/19 15:29:36;;;;;;;28.50;20.52;;;;;;;;;;4812984;29;20816;-79
2022/12/19 15:32:02;;;;;;;23.40;16.55;;;;;;;;;;4798970;29;21498;-78
2022/12/19 15:34:29;;;;;;;26.05;16.95;;;;;;;;;;4799699;29;20061;-78
2022/12/19 15:36:56;;;;;;;28.35;18.73;;;;;;;;;;4800274;29;20050;-81
2022/12/19 15:39:23;;;;;;;29.77;20.67;;;;;;;;;;4809777;29;20171;-81
2022/12/19 15:41:53;;;;;;;24.63;16.52;;;;;;;;;;4810754;29;22047;-80
2022/12/19 15:44:22;;;;;;;27.08;16.73;;;;;;;;;;4813712;29;20053;-86
2022/12/19 15:46:48;;;;;;;22.80;16.08;;;;;;;;;;4798728;29;22066;-77
2022/12/19 15:49:16;;;;;;;22.35;16.15;;;;;;;;;;4822693;29;20080;-77
2022/12/19 15:51:42;;;;;;;20.60;14.02;;;;;;;;;;4798791;29;21445;-77
2022/12/19 15:54:08;;;;;;;19.52;13.70;;;;;;;;;;4809437;29;20050;-77
2022/12/19 15:56:36;;;;;;;16.52;12.82;;;;;;;;;;4800369;29;20042;-77
2022/12/19 15:59:02;;;;;;;21.83;14.63;;;;;;;;;;4803835;29;20077;-77
2022/12/19 16:01:31;;;;;;;22.58;12.30;;;;;;;;;;4800079;29;20046;-77
2022/12/19 16:03:58;;;;;;;21.85;14.85;;;;;;;;;;4812844;29;20050;-77
2022/12/19 16:06:24;;;;;;;19.90;12.43;;;;;;;;;;4795575;29;20078;-77
2022/12/19 16:08:50;;;;;;;20.88;14.38;;;;;;;;;;4804846;29;21387;-77
2022/12/19 16:11:18;;;;;;;20.27;13.63;;;;;;;;;;4812875;29;20133;-77
2022/12/19 16:13:46;;;;;;;18.90;14.10;;;;;;;;;;4809720;29;20077;-77
2022/12/19 16:16:12;;;;;;;20.85;14.30;;;;;;;;;;4808748;29;20041;-77
2022/12/19 16:18:38;;;;;;;21.00;12.88;;;;;;;;;;4807556;29;20094;-76
2022/12/19 16:21:04;;;;;;;20.30;14.50;;;;;;;;;;4811815;29;20056;-77
2022/12/19 16:23:30;;;;;;;24.48;15.45;;;;;;;;;;4797540;29;20061;-76
2022/12/19 16:25:58;;;;;;;16.17;11.85;;;;;;;;;;4822354;29;20057;-77
2022/12/19 16:28:29;;;;;;;16.23;12.27;;;;;;;;;;4797043;29;20526;-77
2022/12/19 16:30:55;;;;;;;21.30;15.98;;;;;;;;;;4811671;29;20046;-78
2022/12/19 16:33:29;;;;;;;25.35;15.50;;;;;;;;;;4823970;29;20471;-77
2022/12/19 16:35:56;;;;;;;22.80;13.75;;;;;;;;;;4811431;29;20269;-78
2022/12/19 16:38:23;;;;;;;26.67;16.80;;;;;;;;;;4813142;29;20195;-77
2022/12/19 16:40:50;;;;;;;24.60;15.40;;;;;;;;;;4814127;29;20491;-76
2022/12/19 16:43:19;;;;;;;23.73;16.33;;;;;;;;;;4817500;29;20145;-77
2022/12/19 16:45:45;;;;;;;22.27;15.05;;;;;;;;;;4814194;29;20468;-77
2022/12/19 16:48:17;;;;;;;19.50;13.30;;;;;;;;;;4813644;29;20665;-77
2022/12/19 16:50:43;;;;;;;20.58;14.32;;;;;;;;;;4815967;29;20053;-77
2022/12/19 16:53:09;;;;;;;23.63;15.90;;;;;;;;;;4814872;29;20041;-77
2022/12/19 16:55:35;;;;;;;26.02;16.10;;;;;;;;;;4813998;29;20064;-77
2022/12/19 16:58:01;;;;;;;20.27;13.43;;;;;;;;;;4816969;29;20052;-78
2022/12/19 17:00:27;;;;;;;16.88;12.73;;;;;;;;;;4841297;29;20057;-78
2022/12/19 17:02:57;;;;;;;19.25;14.52;;;;;;;;;;4832474;29;20073;-77
2022/12/19 17:05:23;;;;;;;18.23;14.75;;;;;;;;;;4815200;29;20060;-78
2022/12/19 17:07:50;;;;;;;22.65;15.10;;;;;;;;;;4839744;29;20106;-78
2022/12/19 17:10:17;;;;;;;19.15;13.68;;;;;;;;;;4801692;29;20082;-77
2022/12/19 17:12:44;;;;;;;17.48;12.68;;;;;;;;;;4813846;29;21141;-77
2022/12/19 17:15:18;;;;;;;20.13;13.73;;;;;;;;;;4807622;29;20109;-77
2022/12/19 17:17:45;;;;;;;24.23;16.55;;;;;;;;;;4816767;29;20125;-78
2022/12/19 17:20:16;;;;;;;24.45;16.42;;;;;;;;;;4811372;29;20045;-77
2022/12/19 17:22:43;;;;;;;19.73;14.10;;;;;;;;;;4830085;29;20045;-78
2022/12/19 17:25:17;;;;;;;19.95;14.43;;;;;;;;;;4811815;29;20057;-77
2022/12/19 17:27:43;;;;;;;21.15;14.98;;;;;;;;;;4810147;29;20050;-77
2022/12/19 17:30:09;;;;;;;17.23;11.27;;;;;;;;;;4816356;29;20384;-76
2022/12/19 17:32:35;;;;;;;22.27;14.50;;;;;;;;;;4812635;29;20038;-77
2022/12/19 17:35:02;;;;;;;18.98;13.00;;;;;;;;;;4810024;29;20091;-78
2022/12/19 17:37:28;;;;;;;16.38;12.57;;;;;;;;;;4791394;29;20057;-77
2022/12/19 17:39:54;;;;;;;20.88;12.60;;;;;;;;;;4804038;29;20105;-77
2022/12/19 17:42:21;;;;;;;19.65;14.57;;;;;;;;;;4815849;29;20210;-77
2022/12/19 17:44:47;;;;;;;16.75;12.63;;;;;;;;;;4819966;29;20467;-77
2022/12/19 17:47:18;;;;;;;21.77;15.50;;;;;;;;;;4816069;29;20050;-77
2022/12/19 17:49:45;;;;;;;18.63;14.57;;;;;;;;;;4817324;29;20089;-78
2022/12/19 17:52:18;;;;;;;17.45;13.48;;;;;;;;;;4815830;29;21433;-77
2022/12/19 17:54:45;;;;;;;17.23;13.52;;;;;;;;;;4804968;29;20105;-77
2022/12/19 17:57:15;;;;;;;18.80;12.65;;;;;;;;;;4809470;29;20056;-77
2022/12/19 17:59:41;;;;;;;14.13;9.77;;;;;;;;;;4815692;29;20558;-78
2022/12/19 18:02:19;;;;;;;19.70;13.45;;;;;;;;;;4798369;29;20495;-78
2022/12/19 18:04:45;;;;;;;17.50;11.98;;;;;;;;;;4806334;29;20144;-77
2022/12/19 18:07:14;;;;;;;15.23;13.63;;;;;;;;;;4809360;29;20053;-77
2022/12/19 18:09:40;;;;;;;17.98;11.95;;;;;;;;;;4799919;29;20084;-77
2022/12/19 18:12:07;;;;;;;19.88;14.98;;;;;;;;;;4814040;29;20045;-76
2022/12/19 18:14:33;;;;;;;15.38;12.02;;;;;;;;;;4814023;29;20050;-77
2022/12/19 18:16:59;;;;;;;16.85;10.68;;;;;;;;;;4815339;29;20164;-76
2022/12/19 18:19:29;;;;;;;20.13;13.43;;;;;;;;;;4816026;29;20041;-76
2022/12/19 18:21:55;;;;;;;16.13;11.98;;;;;;;;;;4831427;29;20196;-78
2022/12/19 18:24:21;;;;;;;18.10;11.98;;;;;;;;;;4806320;29;20086;-77
2022/12/19 18:26:47;;;;;;;15.63;11.05;;;;;;;;;;4814182;29;20587;-77
2022/12/19 18:29:13;;;;;;;12.60;8.95;;;;;;;;;;4824263;29;20041;-78
2022/12/19 18:31:40;;;;;;;10.70;8.27;;;;;;;;;;4800490;29;20060;-79
2022/12/19 18:34:06;;;;;;;14.27;10.32;;;;;;;;;;4800991;29;20422;-78
2022/12/19 18:36:36;;;;;;;13.85;9.93;;;;;;;;;;4828814;29;20195;-78
2022/12/19 18:39:02;;;;;;;15.68;11.25;;;;;;;;;;4811630;29;20185;-78
2022/12/19 18:41:28;;;;;;;17.35;11.07;;;;;;;;;;4803305;29;20057;-78
2022/12/19 18:43:54;;;;;;;15.00;10.35;;;;;;;;;;4822248;29;20940;-78
2022/12/19 18:46:25;;;;;;;15.23;10.93;;;;;;;;;;4829156;29;20139;-77
2022/12/19 18:48:51;;;;;;;15.38;10.70;;;;;;;;;;4821347;29;20490;-78
2022/12/19 18:51:18;;;;;;;14.23;9.70;;;;;;;;;;4808004;29;20045;-78
2022/12/19 18:53:45;;;;;;;14.90;11.27;;;;;;;;;;4817125;29;20771;-78
2022/12/19 18:56:11;;;;;;;11.98;8.77;;;;;;;;;;4822677;29;20044;-77
2022/12/19 18:58:39;;;;;;;14.32;10.40;;;;;;;;;;4800667;29;20141;-78
2022/12/19 19:01:10;;;;;;;15.48;10.65;;;;;;;;;;4819015;29;20049;-78
2022/12/19 19:03:40;;;;;;;18.48;10.50;;;;;;;;;;4818724;29;20460;-78
2022/12/19 19:06:13;;;;;;;14.95;10.43;;;;;;;;;;4806862;29;20041;-78
2022/12/19 19:08:39;;;;;;;13.50;9.73;;;;;;;;;;4816730;29;20690;-78
2022/12/19 19:11:05;;;;;;;16.88;10.35;;;;;;;;;;4811160;29;20041;-77
2022/12/19 19:13:31;;;;;;;13.68;11.15;;;;;;;;;;4807246;29;20084;-77
2022/12/19 19:16:00;;;;;;;11.70;8.75;;;;;;;;;;4833163;29;20703;-78
2022/12/19 19:18:29;;;;;;;15.35;10.18;;;;;;;;;;4816485;29;20050;-78
2022/12/19 19:20:55;;;;;;;14.30;9.38;;;;;;;;;;4812166;29;20060;-78
2022/12/19 19:23:23;;;;;;;13.80;9.77;;;;;;;;;;4815107;29;20049;-78
2022/12/19 19:25:50;;;;;;;11.88;8.35;;;;;;;;;;4815171;29;20077;-78
2022/12/19 19:28:16;;;;;;;13.02;9.40;;;;;;;;;;4804275;29;20082;-78
2022/12/19 19:30:42;;;;;;;12.18;9.02;;;;;;;;;;4804106;29;20049;-77
2022/12/19 19:33:08;;;;;;;14.40;9.50;;;;;;;;;;4808817;29;20045;-77
2022/12/19 19:35:35;;;;;;;13.27;7.72;;;;;;;;;;4794505;29;20203;-78
2022/12/19 19:38:05;;;;;;;12.80;8.63;;;;;;;;;;4813056;29;20041;-78
2022/12/19 19:40:32;;;;;;;11.65;8.10;;;;;;;;;;4811060;29;20359;-78
2022/12/19 19:42:58;;;;;;;11.32;9.00;;;;;;;;;;4817908;29;20077;-77
2022/12/19 19:45:26;;;;;;;10.43;8.50;;;;;;;;;;4813471;29;20049;-78
2022/12/19 19:47:52;;;;;;;11.73;8.85;;;;;;;;;;4810913;29;20488;-78
2022/12/19 19:50:19;;;;;;;11.80;9.38;;;;;;;;;;4804194;29;20083;-78
2022/12/19 19:52:45;;;;;;;13.25;9.30;;;;;;;;;;4810590;29;20042;-78
2022/12/19 19:55:13;;;;;;;11.98;9.18;;;;;;;;;;4821110;29;20050;-79
2022/12/19 19:57:39;;;;;;;9.60;7.38;;;;;;;;;;4808009;29;20064;-76
2022/12/19 20:00:07;;;;;;;11.88;8.48;;;;;;;;;;4819848;29;20142;-77
2022/12/19 20:02:33;;;;;;;11.95;7.45;;;;;;;;;;4802929;29;20198;-77
2022/12/19 20:04:59;;;;;;;10.68;7.93;;;;;;;;;;4826747;29;20153;-77
2022/12/19 20:07:25;;;;;;;12.40;7.93;;;;;;;;;;4816427;29;20700;-77
2022/12/19 20:09:51;;;;;;;11.73;8.30;;;;;;;;;;4804094;29;20077;-77
2022/12/19 20:12:18;;;;;;;11.13;8.27;;;;;;;;;;4816943;29;20077;-77
2022/12/19 20:14:44;;;;;;;11.02;7.55;;;;;;;;;;4814992;29;20616;-77